Time;durP1;ratioP1;P1;durP2;ratioP2;P2;SDS_P1;SDS_P2;PMS_P1;PMS_P2;Temp;Humidity;BMP_temperature;BMP_pressure;BME280_temperature;BME280_humidity;BME280_pressure;Samples;Min_cycle;Max_cycle;Signal;HPM_P1;HPM_P2
2021/12/10 00:01:06;;;;;;;57.33;28.80;;;1.40;99.90;;;;;;5092793;28;20186;-82
2021/12/10 00:03:37;;;;;;;64.73;28.20;;;1.40;99.90;;;;;;5096039;28;20414;-82
2021/12/10 00:06:14;;;;;;;68.10;31.47;;;1.40;99.90;;;;;;5101875;28;20515;-81
2021/12/10 00:08:45;;;;;;;53.27;26.30;;;1.40;99.90;;;;;;5095368;28;20488;-88
2021/12/10 00:11:27;;;;;;;61.73;28.20;;;1.40;99.90;;;;;;5095086;28;20418;-89
2021/12/10 00:13:53;;;;;;;54.17;27.40;;;1.40;99.90;;;;;;5096035;28;20412;-92
2021/12/10 00:16:20;;;;;;;57.33;25.63;;;1.40;99.90;;;;;;5096525;28;20414;-83
2021/12/10 00:18:54;;;;;;;61.07;27.90;;;1.40;99.90;;;;;;5096046;28;20452;-83
2021/12/10 00:21:25;;;;;;;64.33;29.20;;;1.40;99.90;;;;;;5096295;28;20438;-90
2021/12/10 00:23:54;;;;;;;59.50;27.17;;;1.40;99.90;;;;;;5079493;28;20430;-88
2021/12/10 00:26:20;;;;;;;68.20;27.67;;;1.40;99.90;;;;;;5079070;28;20422;-87
2021/12/10 00:28:47;;;;;;;65.50;29.90;;;1.40;99.90;;;;;;5086002;28;20482;-84
2021/12/10 00:31:42;;;;;;;48.20;23.37;;;1.40;99.90;;;;;;5075068;28;20781;-83
2021/12/10 00:34:19;;;;;;;60.13;27.43;;;1.40;99.90;;;;;;5075256;28;20507;-85
2021/12/10 00:36:46;;;;;;;60.77;26.63;;;1.40;99.90;;;;;;5075474;28;20404;-84
2021/12/10 00:39:21;;;;;;;57.53;25.63;;;1.40;99.90;;;;;;5075271;28;20486;-85
2021/12/10 00:41:47;;;;;;;66.83;28.20;;;1.30;99.90;;;;;;5075218;28;20407;-88
2021/12/10 00:44:12;;;;;;;65.73;27.20;;;1.30;99.90;;;;;;5075311;28;20416;-85
2021/12/10 00:46:38;;;;;;;67.07;29.37;;;1.30;99.90;;;;;;5075213;28;20415;-84
2021/12/10 00:49:07;;;;;;;64.73;28.90;;;1.30;99.90;;;;;;5073903;28;20239;-83
2021/12/10 00:51:33;;;;;;;52.87;21.87;;;1.30;99.90;;;;;;5074956;28;20449;-87
2021/12/10 00:53:59;;;;;;;60.00;27.43;;;1.30;99.90;;;;;;5075047;28;20514;-87
2021/12/10 00:56:24;;;;;;;54.40;26.00;;;1.30;99.90;;;;;;5075029;28;21007;-84
2021/12/10 00:58:50;;;;;;;53.30;26.50;;;1.30;99.90;;;;;;5074714;28;20535;-84
2021/12/10 01:01:21;;;;;;;68.67;29.20;;;1.30;99.90;;;;;;5073540;28;20271;-83
2021/12/10 01:03:57;;;;;;;66.80;30.40;;;1.30;99.90;;;;;;5074701;28;20173;-86
2021/12/10 01:06:25;;;;;;;64.30;26.03;;;1.30;99.90;;;;;;5074758;28;20420;-85
2021/12/10 01:08:55;;;;;;;68.47;28.53;;;1.40;99.90;;;;;;5073131;28;20964;-82
2021/12/10 01:11:39;;;;;;;55.60;25.50;;;1.40;99.90;;;;;;5074544;28;20416;-84
2021/12/10 01:14:17;;;;;;;54.30;29.80;;;1.40;99.90;;;;;;5074701;28;20413;-87
2021/12/10 01:27:33;;;;;;;67.10;28.07;;;1.40;99.90;;;;;;5074508;28;20911;-88
2021/12/10 01:30:02;;;;;;;55.60;25.77;;;1.40;99.90;;;;;;5074057;28;20224;-82
2021/12/10 01:32:32;;;;;;;50.47;26.10;;;1.40;99.90;;;;;;5074207;28;20430;-87
2021/12/10 01:34:58;;;;;;;58.50;23.00;;;1.40;99.90;;;;;;5073096;28;20421;-81
2021/12/10 01:37:24;;;;;;;43.73;23.10;;;1.40;99.90;;;;;;5073684;28;20494;-86
2021/12/10 01:39:51;;;;;;;61.73;26.70;;;1.40;99.90;;;;;;5073822;28;20184;-84
2021/12/10 01:42:33;;;;;;;60.03;28.87;;;1.40;99.90;;;;;;5073646;28;20407;-87
2021/12/10 01:45:01;;;;;;;61.60;23.80;;;1.40;99.90;;;;;;5088803;28;20414;-84
2021/12/10 01:47:34;;;;;;;64.10;27.80;;;1.40;99.90;;;;;;5094202;28;20414;-84
2021/12/10 01:50:00;;;;;;;58.30;27.90;;;1.40;99.90;;;;;;5093963;28;20472;-85
2021/12/10 01:52:27;;;;;;;57.97;27.20;;;1.40;99.90;;;;;;5094047;28;20410;-84
2021/12/10 01:54:56;;;;;;;56.70;25.23;;;1.40;99.90;;;;;;5093812;28;20471;-86
2021/12/10 01:57:25;;;;;;;56.30;24.00;;;1.40;99.90;;;;;;5092223;28;20410;-85
2021/12/10 01:59:52;;;;;;;59.10;27.60;;;1.40;99.90;;;;;;5093596;28;20418;-81
2021/12/10 02:02:27;;;;;;;65.77;27.07;;;1.40;99.90;;;;;;5093573;28;20406;-82
2021/12/10 02:04:53;;;;;;;59.73;27.00;;;1.40;99.90;;;;;;5093884;28;20464;-86
2021/12/10 02:07:23;;;;;;;57.37;25.80;;;1.40;99.90;;;;;;5093870;28;20898;-82
2021/12/10 02:09:49;;;;;;;58.00;28.23;;;1.40;99.90;;;;;;5092210;28;20482;-85
2021/12/10 02:12:17;;;;;;;56.00;26.27;;;1.40;99.90;;;;;;5093481;28;20409;-86
2021/12/10 02:14:43;;;;;;;62.60;26.20;;;1.40;99.90;;;;;;5093623;28;20437;-83
2021/12/10 02:17:09;;;;;;;48.77;24.70;;;1.40;99.90;;;;;;5092566;28;20423;-83
2021/12/10 02:19:36;;;;;;;45.90;25.20;;;1.40;99.90;;;;;;5092329;28;20874;-83
2021/12/10 02:22:04;;;;;;;50.03;23.27;;;1.40;99.90;;;;;;5093060;28;20414;-82
2021/12/10 02:24:30;;;;;;;59.47;26.07;;;1.40;99.90;;;;;;5093234;28;20748;-86
2021/12/10 02:27:00;;;;;;;47.77;22.10;;;1.40;99.90;;;;;;5092844;28;20417;-82
2021/12/10 02:29:29;;;;;;;48.30;25.63;;;1.40;99.90;;;;;;5091951;28;20618;-82
2021/12/10 02:31:55;;;;;;;54.50;27.17;;;1.40;99.90;;;;;;5092833;28;20410;-85
2021/12/10 02:34:23;;;;;;;64.67;28.37;;;1.40;99.90;;;;;;5092920;28;20612;-83
2021/12/10 02:36:49;;;;;;;58.13;26.77;;;1.40;99.90;;;;;;5091825;28;20828;-87
2021/12/10 02:39:18;;;;;;;56.33;26.87;;;1.40;99.90;;;;;;5092929;28;20860;-85
2021/12/10 02:41:45;;;;;;;48.50;23.50;;;1.40;99.90;;;;;;5092534;28;20835;-83
2021/12/10 02:44:13;;;;;;;52.53;25.97;;;1.40;99.90;;;;;;5093122;28;20414;-85
2021/12/10 02:46:40;;;;;;;51.97;24.90;;;1.40;99.90;;;;;;5093351;28;20539;-84
2021/12/10 02:49:07;;;;;;;57.40;24.97;;;1.50;99.90;;;;;;5093010;28;20465;-84
2021/12/10 02:51:35;;;;;;;55.67;25.87;;;1.50;99.90;;;;;;5092972;28;20410;-83
2021/12/10 02:54:04;;;;;;;57.50;26.40;;;1.50;99.90;;;;;;5093016;28;20452;-82
2021/12/10 02:56:31;;;;;;;58.67;24.27;;;1.40;99.90;;;;;;5092537;28;20443;-82
2021/12/10 02:59:02;;;;;;;60.70;29.10;;;1.40;99.90;;;;;;5092781;28;20427;-86
2021/12/10 03:01:49;;;;;;;49.73;22.60;;;1.50;99.90;;;;;;5092852;28;20911;-79
2021/12/10 03:04:16;;;;;;;61.80;27.13;;;1.50;99.90;;;;;;5092591;28;20464;-86
2021/12/10 03:06:46;;;;;;;48.10;24.37;;;1.50;99.90;;;;;;5092972;28;20406;-82
2021/12/10 03:09:13;;;;;;;53.07;25.60;;;1.50;99.90;;;;;;5092720;28;20947;-85
2021/12/10 03:11:39;;;;;;;51.90;26.67;;;1.50;99.90;;;;;;5092275;28;20907;-86
2021/12/10 03:14:11;;;;;;;50.33;24.63;;;1.50;99.90;;;;;;5092743;28;20886;-84
2021/12/10 03:16:39;;;;;;;49.00;24.43;;;1.60;99.90;;;;;;5092695;28;20635;-82
2021/12/10 03:19:06;;;;;;;42.40;21.83;;;1.60;99.90;;;;;;5092349;28;20414;-85
2021/12/10 03:21:33;;;;;;;42.80;22.63;;;1.50;99.90;;;;;;5092763;28;20917;-85
2021/12/10 03:24:00;;;;;;;44.07;21.70;;;1.60;99.90;;;;;;5092908;28;20513;-81
2021/12/10 03:26:26;;;;;;;49.50;23.30;;;1.60;99.90;;;;;;5092387;28;20410;-81
2021/12/10 03:28:52;;;;;;;44.70;21.90;;;1.60;99.90;;;;;;5091699;28;20476;-84
2021/12/10 03:31:20;;;;;;;45.80;20.50;;;1.60;99.90;;;;;;5092857;28;20411;-87
2021/12/10 03:33:47;;;;;;;57.87;23.83;;;1.70;99.90;;;;;;5092962;28;20784;-90
2021/12/10 03:36:14;;;;;;;51.07;24.07;;;1.70;99.90;;;;;;5092988;28;20894;-87
2021/12/10 03:38:42;;;;;;;55.40;23.37;;;1.70;99.90;;;;;;5092475;28;20474;-81
2021/12/10 03:41:09;;;;;;;43.57;20.03;;;1.70;99.90;;;;;;5091369;28;20821;-81
2021/12/10 03:43:36;;;;;;;48.57;22.47;;;1.70;99.90;;;;;;5092233;28;20429;-87
2021/12/10 03:46:04;;;;;;;47.50;23.67;;;1.70;99.90;;;;;;5096551;28;20414;-86
2021/12/10 03:48:34;;;;;;;40.27;18.43;;;1.80;99.90;;;;;;5096322;28;20860;-82
2021/12/10 03:51:04;;;;;;;47.97;23.47;;;1.80;99.90;;;;;;5096142;28;20505;-82
2021/12/10 03:53:30;;;;;;;37.73;18.23;;;1.70;99.90;;;;;;5094780;28;20410;-84
2021/12/10 03:56:03;;;;;;;43.23;19.97;;;1.80;99.90;;;;;;5096170;28;20429;-84
2021/12/10 03:58:28;;;;;;;46.43;20.90;;;1.70;99.90;;;;;;5095674;28;20237;-87
2021/12/10 04:00:56;;;;;;;43.10;17.37;;;1.80;99.90;;;;;;5096321;28;20414;-82
2021/12/10 04:03:24;;;;;;;44.40;21.10;;;1.80;99.90;;;;;;5094784;28;20179;-80
2021/12/10 04:05:51;;;;;;;38.80;22.30;;;1.70;99.90;;;;;;5094474;28;20431;-81
2021/12/10 04:08:17;;;;;;;39.00;20.30;;;1.80;99.90;;;;;;5095708;28;20510;-82
2021/12/10 04:10:43;;;;;;;42.80;22.10;;;1.70;99.90;;;;;;5095936;28;20461;-87
2021/12/10 04:13:09;;;;;;;36.37;19.90;;;1.70;99.90;;;;;;5095307;28;20473;-81
2021/12/10 04:15:38;;;;;;;40.33;21.47;;;1.70;99.90;;;;;;5094369;28;20188;-81
2021/12/10 04:18:05;;;;;;;37.27;21.00;;;1.70;99.90;;;;;;5095613;28;20843;-80
2021/12/10 04:20:31;;;;;;;40.90;19.80;;;1.70;99.90;;;;;;5095479;28;20421;-82
2021/12/10 04:22:59;;;;;;;45.37;23.60;;;1.70;99.90;;;;;;5095528;28;20438;-86
2021/12/10 04:25:25;;;;;;;42.27;20.93;;;1.70;99.90;;;;;;5095612;28;20433;-85
2021/12/10 04:27:56;;;;;;;42.90;19.47;;;1.70;99.90;;;;;;5095320;28;20415;-86
2021/12/10 04:30:23;;;;;;;35.20;18.10;;;1.70;99.90;;;;;;5095706;28;20465;-83
2021/12/10 04:32:48;;;;;;;45.77;23.07;;;1.70;99.90;;;;;;5095499;28;20944;-83
2021/12/10 04:35:16;;;;;;;43.47;21.20;;;1.70;99.90;;;;;;5095568;28;20489;-86
2021/12/10 04:37:41;;;;;;;44.77;22.10;;;1.70;99.90;;;;;;5095343;28;20203;-87
2021/12/10 04:40:10;;;;;;;36.20;19.03;;;1.70;99.90;;;;;;5095500;28;20410;-85
2021/12/10 04:42:36;;;;;;;47.37;20.37;;;1.70;99.90;;;;;;5093737;28;20415;-83
2021/12/10 04:45:04;;;;;;;46.27;21.97;;;1.70;99.90;;;;;;5094136;28;20428;-85
2021/12/10 04:47:31;;;;;;;43.60;19.07;;;1.70;99.90;;;;;;5095261;28;20544;-83
2021/12/10 04:49:57;;;;;;;46.07;20.07;;;1.70;99.90;;;;;;5094962;28;20515;-82
2021/12/10 04:52:23;;;;;;;40.97;19.50;;;1.70;99.90;;;;;;5094157;28;20899;-82
2021/12/10 04:54:49;;;;;;;43.47;19.63;;;1.70;99.90;;;;;;5094942;28;20172;-83
2021/12/10 04:57:15;;;;;;;38.27;20.97;;;1.70;99.90;;;;;;5094716;28;20456;-85
2021/12/10 04:59:42;;;;;;;46.13;20.53;;;1.70;99.90;;;;;;5094855;28;20211;-85
2021/12/10 05:02:11;;;;;;;45.57;21.60;;;1.70;99.90;;;;;;5094851;28;20413;-83
2021/12/10 05:04:38;;;;;;;38.73;22.57;;;1.70;99.90;;;;;;5094440;28;20434;-82
2021/12/10 05:07:05;;;;;;;28.87;17.20;;;1.70;99.90;;;;;;5094957;28;20406;-82
2021/12/10 05:09:32;;;;;;;45.77;21.07;;;1.70;99.90;;;;;;5093178;28;20511;-84
2021/12/10 05:11:58;;;;;;;38.47;19.07;;;1.70;99.90;;;;;;5092120;28;20406;-84
2021/12/10 05:14:25;;;;;;;30.63;18.27;;;1.60;99.90;;;;;;5094658;28;20913;-82
2021/12/10 05:16:54;;;;;;;44.37;19.40;;;1.60;99.90;;;;;;5093530;28;20421;-83
2021/12/10 05:19:23;;;;;;;34.60;19.43;;;1.70;99.90;;;;;;5094366;28;20505;-84
2021/12/10 05:21:49;;;;;;;40.77;17.17;;;1.70;99.90;;;;;;5093341;28;20475;-84
2021/12/10 05:24:15;;;;;;;34.20;16.50;;;1.70;99.90;;;;;;5093246;28;20426;-84
2021/12/10 05:26:41;;;;;;;35.83;17.53;;;1.70;99.90;;;;;;5094187;28;20493;-83
2021/12/10 05:29:08;;;;;;;41.17;18.43;;;1.70;99.90;;;;;;5094252;28;20453;-85
2021/12/10 05:31:35;;;;;;;44.63;21.27;;;1.70;99.90;;;;;;5094594;28;20418;-84
2021/12/10 05:34:02;;;;;;;40.53;18.00;;;1.70;99.90;;;;;;5094564;28;20444;-83
2021/12/10 05:36:27;;;;;;;44.70;20.70;;;1.70;99.90;;;;;;5094466;28;20791;-84
2021/12/10 05:38:53;;;;;;;43.60;19.40;;;1.60;99.90;;;;;;5094387;28;20461;-81
2021/12/10 05:41:19;;;;;;;42.13;20.30;;;1.70;99.90;;;;;;5093951;28;20172;-82
2021/12/10 05:43:45;;;;;;;43.97;21.10;;;1.60;99.90;;;;;;5094320;28;20496;-83
2021/12/10 05:46:12;;;;;;;44.57;20.10;;;1.60;99.90;;;;;;5094244;28;20890;-82
2021/12/10 05:48:41;;;;;;;41.33;16.53;;;1.70;99.90;;;;;;5094258;28;20286;-81
2021/12/10 05:51:07;;;;;;;39.40;17.33;;;1.60;99.90;;;;;;5094042;28;20410;-81
2021/12/10 05:53:33;;;;;;;36.43;18.03;;;1.60;99.90;;;;;;5093799;28;20421;-83
2021/12/10 05:55:59;;;;;;;40.27;18.77;;;1.60;99.90;;;;;;5093553;28;20406;-82
2021/12/10 05:58:24;;;;;;;36.47;18.07;;;1.50;99.90;;;;;;5093919;28;20164;-83
2021/12/10 06:00:59;;;;;;;37.23;19.63;;;1.60;99.90;;;;;;5093740;28;20290;-82
2021/12/10 06:03:25;;;;;;;39.43;18.40;;;1.60;99.90;;;;;;5093779;28;20640;-82
2021/12/10 06:05:52;;;;;;;40.87;19.83;;;1.50;99.90;;;;;;5088004;28;20514;-83
2021/12/10 06:08:18;;;;;;;39.97;17.50;;;1.50;99.90;;;;;;5091653;28;20419;-80
2021/12/10 06:10:45;;;;;;;49.43;21.53;;;1.50;99.90;;;;;;5088882;28;20427;-81
2021/12/10 06:13:10;;;;;;;39.27;18.40;;;1.60;99.90;;;;;;5072971;28;20422;-80
2021/12/10 06:15:37;;;;;;;45.30;21.33;;;1.50;99.90;;;;;;5073147;28;20415;-81
2021/12/10 06:18:04;;;;;;;35.03;17.37;;;1.50;99.90;;;;;;5071832;28;20264;-82
2021/12/10 06:20:34;;;;;;;32.57;16.63;;;1.50;99.90;;;;;;5073151;28;20437;-83
2021/12/10 06:23:00;;;;;;;47.37;21.20;;;1.50;99.90;;;;;;5073562;28;20399;-82
2021/12/10 06:25:31;;;;;;;37.87;18.00;;;1.50;99.90;;;;;;5082780;28;20425;-82
2021/12/10 06:27:57;;;;;;;45.07;20.53;;;1.50;99.90;;;;;;5092860;28;20915;-82
2021/12/10 06:30:28;;;;;;;44.10;20.30;;;1.50;99.90;;;;;;5091920;28;20486;-83
2021/12/10 06:32:54;;;;;;;44.20;18.90;;;1.40;99.90;;;;;;5092051;28;20502;-81
2021/12/10 06:35:22;;;;;;;40.03;19.50;;;1.40;99.90;;;;;;5093250;28;20419;-82
2021/12/10 06:37:48;;;;;;;42.60;19.97;;;1.40;99.90;;;;;;5091843;28;21000;-81
2021/12/10 06:40:18;;;;;;;42.73;18.97;;;1.40;99.90;;;;;;5093227;28;20447;-82
2021/12/10 06:42:44;;;;;;;39.23;21.43;;;1.30;99.90;;;;;;5092406;28;20509;-82
2021/12/10 06:45:13;;;;;;;47.07;17.67;;;1.30;99.90;;;;;;5091833;28;20963;-83
2021/12/10 06:47:40;;;;;;;38.37;18.20;;;1.30;99.90;;;;;;5092321;28;20180;-82
2021/12/10 06:50:08;;;;;;;40.33;19.93;;;1.20;99.90;;;;;;5091702;28;20458;-81
2021/12/10 06:52:33;;;;;;;39.00;19.33;;;1.20;99.90;;;;;;5089122;28;20939;-82
2021/12/10 06:54:59;;;;;;;33.73;18.00;;;1.20;99.90;;;;;;5088853;28;20430;-81
2021/12/10 06:57:25;;;;;;;37.73;19.40;;;1.30;99.90;;;;;;5091510;28;20164;-83
2021/12/10 06:59:52;;;;;;;37.90;17.87;;;1.30;99.90;;;;;;5091804;28;20259;-82
2021/12/10 07:02:18;;;;;;;39.43;16.13;;;1.30;99.90;;;;;;5092196;28;20167;-81
2021/12/10 07:04:44;;;;;;;38.47;17.30;;;1.30;99.90;;;;;;5090626;28;20427;-81
2021/12/10 07:07:11;;;;;;;42.90;19.37;;;1.30;99.90;;;;;;5089357;28;20529;-83
2021/12/10 07:09:38;;;;;;;43.07;19.77;;;1.40;99.90;;;;;;5088940;28;20465;-82
2021/12/10 07:12:07;;;;;;;44.67;22.30;;;1.40;99.90;;;;;;5091546;28;20764;-82
2021/12/10 07:14:33;;;;;;;37.33;17.73;;;1.40;99.90;;;;;;5091248;28;20436;-82
2021/12/10 07:16:59;;;;;;;38.23;17.57;;;1.40;99.90;;;;;;5091749;28;20926;-83
2021/12/10 07:19:27;;;;;;;43.20;21.30;;;1.40;99.90;;;;;;5093554;28;20471;-83
2021/12/10 07:21:53;;;;;;;40.23;19.87;;;1.40;99.90;;;;;;5095754;28;20178;-82
2021/12/10 07:24:20;;;;;;;40.03;18.87;;;1.40;99.90;;;;;;5095867;28;20497;-81
2021/12/10 07:26:48;;;;;;;37.33;18.57;;;1.40;99.90;;;;;;5095226;28;20410;-82
2021/12/10 07:29:14;;;;;;;38.60;17.83;;;1.40;99.90;;;;;;5092679;28;20537;-83
2021/12/10 07:31:41;;;;;;;40.23;18.17;;;1.40;99.90;;;;;;5095547;28;20418;-82
2021/12/10 07:34:07;;;;;;;47.30;21.90;;;1.40;99.90;;;;;;5095479;28;20500;-81
2021/12/10 07:36:37;;;;;;;41.30;21.20;;;1.40;99.90;;;;;;5094921;28;20784;-82
2021/12/10 07:39:07;;;;;;;33.77;16.63;;;1.50;99.90;;;;;;5094992;28;20545;-82
2021/12/10 07:41:32;;;;;;;47.37;23.03;;;1.50;99.90;;;;;;5094755;28;20751;-81
2021/12/10 07:43:58;;;;;;;36.87;16.60;;;1.50;99.90;;;;;;5095248;28;20422;-82
2021/12/10 07:46:27;;;;;;;41.33;21.17;;;1.50;99.90;;;;;;5095175;28;20176;-82
2021/12/10 07:48:53;;;;;;;36.67;19.60;;;1.50;99.90;;;;;;5092261;28;20269;-83
2021/12/10 07:51:23;;;;;;;38.90;20.40;;;1.50;99.90;;;;;;5095267;28;20406;-82
2021/12/10 07:53:53;;;;;;;40.60;17.27;;;1.50;99.90;;;;;;5094949;28;20411;-81
2021/12/10 07:56:18;;;;;;;43.20;21.43;;;1.50;99.90;;;;;;5094557;28;20426;-83
2021/12/10 07:58:44;;;;;;;36.97;17.43;;;1.50;99.90;;;;;;5094810;28;20532;-82
2021/12/10 08:01:14;;;;;;;43.43;21.00;;;1.50;99.90;;;;;;5094929;28;20172;-84
2021/12/10 08:03:39;;;;;;;38.93;17.73;;;1.50;99.90;;;;;;5094996;28;20188;-83
2021/12/10 08:06:06;;;;;;;39.07;19.73;;;1.60;99.90;;;;;;5092063;28;20434;-83
2021/12/10 08:08:31;;;;;;;39.73;18.90;;;1.60;99.90;;;;;;5093872;28;20200;-83
2021/12/10 08:10:57;;;;;;;39.43;21.77;;;1.60;99.90;;;;;;5095206;28;20796;-82
2021/12/10 08:13:23;;;;;;;36.80;18.37;;;1.60;99.90;;;;;;5095866;28;20172;-82
2021/12/10 08:15:52;;;;;;;39.80;20.97;;;1.60;99.90;;;;;;5095622;28;20411;-82
2021/12/10 08:18:18;;;;;;;42.27;20.30;;;1.70;99.90;;;;;;5095603;28;20179;-83
2021/12/10 08:20:44;;;;;;;40.37;19.60;;;1.60;99.90;;;;;;5095615;28;20418;-82
2021/12/10 08:23:10;;;;;;;43.07;20.00;;;1.70;99.90;;;;;;5095475;28;20798;-82
2021/12/10 08:25:36;;;;;;;32.53;17.70;;;1.70;99.90;;;;;;5095127;28;20175;-82
2021/12/10 08:28:04;;;;;;;38.67;17.50;;;1.70;99.90;;;;;;5095409;28;20641;-83
2021/12/10 08:30:31;;;;;;;46.53;21.20;;;1.70;99.90;;;;;;5094616;28;20442;-83
2021/12/10 08:32:58;;;;;;;39.40;18.97;;;1.70;99.90;;;;;;5095420;28;20493;-83
2021/12/10 08:35:29;;;;;;;41.13;20.63;;;1.80;99.90;;;;;;5095532;28;20419;-82
2021/12/10 08:37:56;;;;;;;37.03;18.77;;;1.80;99.90;;;;;;5094017;28;20862;-82
2021/12/10 08:40:28;;;;;;;47.67;18.23;;;1.80;99.90;;;;;;5095041;28;20466;-83
2021/12/10 08:42:54;;;;;;;34.10;20.07;;;1.80;99.90;;;;;;5095334;28;20406;-84
2021/12/10 08:45:21;;;;;;;40.53;19.03;;;1.80;99.90;;;;;;5093852;28;20791;-83
2021/12/10 08:47:49;;;;;;;39.40;20.20;;;1.90;99.90;;;;;;5095079;28;20413;-83
2021/12/10 08:50:22;;;;;;;36.13;18.67;;;1.90;99.90;;;;;;5095005;28;20473;-83
2021/12/10 08:52:50;;;;;;;29.40;18.07;;;1.90;99.90;;;;;;5093777;28;20437;-83
2021/12/10 08:55:17;;;;;;;30.37;14.60;;;1.90;99.90;;;;;;5093857;28;20922;-84
2021/12/10 08:57:43;;;;;;;35.37;18.33;;;1.90;99.90;;;;;;5094635;28;20407;-82
2021/12/10 09:00:10;;;;;;;33.97;16.50;;;2.00;99.90;;;;;;5094847;28;20517;-83
2021/12/10 09:02:37;;;;;;;38.97;18.63;;;2.00;99.90;;;;;;5095037;28;20410;-83
2021/12/10 09:05:08;;;;;;;34.43;16.30;;;2.00;99.90;;;;;;5087400;28;20516;-80
2021/12/10 09:07:34;;;;;;;28.03;15.90;;;2.10;99.90;;;;;;5084053;28;20414;-81
2021/12/10 09:10:00;;;;;;;34.70;14.70;;;2.10;99.90;;;;;;5081224;28;20993;-81
2021/12/10 09:12:27;;;;;;;41.70;16.13;;;2.10;99.90;;;;;;5082986;28;20431;-81
2021/12/10 09:14:55;;;;;;;33.43;16.63;;;2.20;99.90;;;;;;5076936;28;20230;-79
2021/12/10 09:17:26;;;;;;;36.03;16.97;;;2.20;99.90;;;;;;5093449;28;20415;-82
2021/12/10 09:19:53;;;;;;;33.93;16.83;;;2.20;99.90;;;;;;5091138;28;20803;-82
2021/12/10 09:22:19;;;;;;;34.77;15.67;;;2.20;99.90;;;;;;5091842;28;20469;-82
2021/12/10 09:24:46;;;;;;;35.07;18.10;;;2.20;99.90;;;;;;5093728;28;20462;-81
2021/12/10 09:27:13;;;;;;;31.23;14.63;;;2.30;99.90;;;;;;5093585;28;20427;-81
2021/12/10 09:29:42;;;;;;;31.67;17.00;;;2.30;99.90;;;;;;5093524;28;20505;-81
2021/12/10 09:32:14;;;;;;;34.07;14.77;;;2.30;99.90;;;;;;5094285;28;20422;-81
2021/12/10 09:34:41;;;;;;;26.67;15.00;;;2.30;99.90;;;;;;5094123;28;20414;-81
2021/12/10 09:37:09;;;;;;;35.10;16.13;;;2.30;99.90;;;;;;5093656;28;20414;-86
2021/12/10 09:39:35;;;;;;;26.80;13.93;;;2.40;99.90;;;;;;5092684;28;20450;-83
2021/12/10 09:42:02;;;;;;;33.33;14.50;;;2.40;99.90;;;;;;5092022;28;20918;-81
2021/12/10 09:44:28;;;;;;;35.30;17.20;;;2.40;99.90;;;;;;5084658;28;20439;-82
2021/12/10 09:46:55;;;;;;;29.00;13.03;;;2.40;99.90;;;;;;5085470;28;20422;-82
2021/12/10 09:49:24;;;;;;;26.60;14.27;;;2.40;99.90;;;;;;5105883;28;20569;-83
2021/12/10 09:51:53;;;;;;;38.70;14.80;;;2.40;99.90;;;;;;5073096;28;20752;-82
2021/12/10 09:54:21;;;;;;;32.23;17.43;;;2.50;99.90;;;;;;5070969;28;20972;-82
2021/12/10 09:56:53;;;;;;;30.70;15.37;;;2.50;99.90;;;;;;5073156;28;20909;-85
2021/12/10 09:59:19;;;;;;;35.60;16.07;;;2.50;99.90;;;;;;5073599;28;20436;-84
2021/12/10 10:01:47;;;;;;;35.40;16.90;;;2.50;99.90;;;;;;5072056;28;20505;-83
2021/12/10 10:04:17;;;;;;;22.20;14.53;;;2.50;99.90;;;;;;5073360;28;20172;-82
2021/12/10 10:06:51;;;;;;;25.50;14.83;;;2.60;99.90;;;;;;5073409;28;20444;-82
2021/12/10 10:09:20;;;;;;;35.47;14.93;;;2.60;99.90;;;;;;5073378;28;21005;-83
2021/12/10 10:11:48;;;;;;;33.30;16.73;;;2.60;99.90;;;;;;5073047;28;20407;-83
2021/12/10 10:14:13;;;;;;;31.10;15.03;;;2.70;99.90;;;;;;5073037;28;20481;-83
2021/12/10 10:16:44;;;;;;;33.20;15.67;;;2.70;99.90;;;;;;5073177;28;20819;-83
2021/12/10 10:19:11;;;;;;;36.40;17.33;;;2.70;99.90;;;;;;5073095;28;20541;-83
2021/12/10 10:21:41;;;;;;;34.10;15.07;;;2.80;99.90;;;;;;5073200;28;20411;-82
2021/12/10 10:24:07;;;;;;;27.00;15.53;;;2.80;99.90;;;;;;5072683;28;20785;-84
2021/12/10 10:26:37;;;;;;;33.13;17.67;;;2.70;99.90;;;;;;5072627;28;20418;-82
2021/12/10 10:29:09;;;;;;;28.90;16.50;;;2.70;99.90;;;;;;5072949;28;20197;-85
2021/12/10 10:31:38;;;;;;;33.27;17.00;;;2.70;99.90;;;;;;5071797;28;20448;-84
2021/12/10 10:34:04;;;;;;;35.00;15.87;;;2.70;99.90;;;;;;5073277;28;20405;-85
2021/12/10 10:36:33;;;;;;;28.50;14.60;;;2.80;99.90;;;;;;5071989;28;20426;-86
2021/12/10 10:39:09;;;;;;;39.63;16.67;;;2.80;99.90;;;;;;5087101;28;20510;-85
2021/12/10 10:41:37;;;;;;;34.73;17.07;;;2.80;99.90;;;;;;5111736;28;20417;-87
2021/12/10 10:44:05;;;;;;;37.00;15.93;;;2.80;99.90;;;;;;5113483;28;20420;-85
2021/12/10 10:46:32;;;;;;;33.17;14.90;;;2.90;99.90;;;;;;5113578;28;20397;-86
2021/12/10 10:48:58;;;;;;;32.00;15.93;;;2.90;99.90;;;;;;5113539;28;20555;-84
2021/12/10 10:51:32;;;;;;;34.07;16.50;;;2.80;99.90;;;;;;5112239;28;20483;-85
2021/12/10 10:53:59;;;;;;;35.77;16.73;;;2.90;99.90;;;;;;5117934;28;20905;-84
2021/12/10 10:56:29;;;;;;;33.27;16.10;;;2.90;99.90;;;;;;5119717;27;20405;-84
2021/12/10 10:59:00;;;;;;;34.00;14.63;;;2.90;99.90;;;;;;5120104;27;20413;-85
2021/12/10 11:01:40;;;;;;;30.90;16.23;;;2.90;99.90;;;;;;5118912;28;20782;-82
2021/12/10 11:04:18;;;;;;;30.03;14.50;;;2.90;99.90;;;;;;5120062;28;20492;-85
2021/12/10 11:06:51;;;;;;;31.63;14.77;;;2.90;99.90;;;;;;5120111;27;20411;-82
2021/12/10 11:09:24;;;;;;;35.43;16.00;;;2.90;99.90;;;;;;5120136;27;20460;-85
2021/12/10 11:11:52;;;;;;;30.50;15.97;;;3.00;99.90;;;;;;5116053;27;20458;-82
2021/12/10 11:14:25;;;;;;;29.67;15.93;;;3.00;99.90;;;;;;5119340;27;20425;-85
2021/12/10 11:16:54;;;;;;;35.10;16.90;;;3.00;99.90;;;;;;5118693;27;20924;-82
2021/12/10 11:19:22;;;;;;;34.70;16.97;;;3.20;99.90;;;;;;5116626;28;21032;-85
2021/12/10 11:21:59;;;;;;;32.50;16.30;;;3.20;99.90;;;;;;5119550;27;20409;-83
2021/12/10 11:24:45;;;;;;;29.93;15.13;;;3.20;99.90;;;;;;5119574;27;20413;-82
2021/12/10 11:27:20;;;;;;;32.93;15.00;;;3.20;99.90;;;;;;5117742;28;20421;-83
2021/12/10 11:29:52;;;;;;;29.03;15.40;;;3.30;99.90;;;;;;5119647;27;20846;-84
2021/12/10 11:33:04;;;;;;;30.27;15.93;;;3.40;99.90;;;;;;5119563;27;20405;-84
2021/12/10 11:35:40;;;;;;;29.10;15.00;;;3.40;99.90;;;;;;5056546;28;20970;-85
2021/12/10 11:38:06;;;;;;;29.73;16.87;;;3.40;99.90;;;;;;5056345;28;20459;-82
2021/12/10 11:40:52;;;;;;;34.00;15.10;;;3.50;99.90;;;;;;5079476;28;20504;-83
2021/12/10 11:44:19;;;;;;;35.43;16.67;;;3.50;99.90;;;;;;5119014;27;20533;-83
2021/12/10 11:49:30;;;;;;;32.63;15.30;;;3.50;99.90;;;;;;5119319;28;20500;-84
2021/12/10 11:52:07;;;;;;;33.40;16.33;;;3.40;99.90;;;;;;5100149;28;20945;-85
2021/12/10 11:54:43;;;;;;;28.57;13.27;;;3.40;99.90;;;;;;5091819;28;20433;-85
2021/12/10 11:57:16;;;;;;;32.30;18.50;;;3.40;99.90;;;;;;5078594;28;20427;-83
2021/12/10 11:59:50;;;;;;;35.43;14.10;;;5.10;99.90;;;;;;5079358;28;20853;-83
2021/12/10 12:02:20;;;;;;;35.10;15.13;;;4.10;99.90;;;;;;5093348;28;20775;-84
2021/12/10 12:04:49;;;;;;;32.83;13.30;;;3.70;99.90;;;;;;5095155;28;20510;-83
2021/12/10 12:07:35;;;;;;;36.90;14.70;;;3.80;99.90;;;;;;5094015;28;20457;-83
2021/12/10 12:10:04;;;;;;;29.07;12.93;;;3.60;99.90;;;;;;5093729;28;20462;-85
2021/12/10 12:12:38;;;;;;;26.27;13.37;;;3.50;99.90;;;;;;5089366;28;20429;-84
2021/12/10 12:15:28;;;;;;;34.47;15.00;;;3.60;99.90;;;;;;5093465;28;20976;-84
2021/12/10 12:18:29;;;;;;;26.53;14.00;;;3.50;99.90;;;;;;5094233;28;20820;-85
2021/12/10 12:21:37;;;;;;;30.23;14.37;;;3.50;99.90;;;;;;5085856;28;20433;-85
2021/12/10 12:26:31;;;;;;;29.73;15.53;;;3.40;99.90;;;;;;5090848;28;20408;-84
2021/12/10 12:29:07;;;;;;;25.30;13.20;;;3.40;99.90;;;;;;5092511;28;21755;-84
2021/12/10 12:31:36;;;;;;;32.73;13.73;;;3.30;99.90;;;;;;5094250;28;20183;-87
2021/12/10 12:34:13;;;;;;;28.57;14.80;;;3.50;99.90;;;;;;5093747;28;20960;-84
2021/12/10 12:36:50;;;;;;;32.73;15.63;;;3.40;99.90;;;;;;5090928;28;20445;-84
2021/12/10 12:39:28;;;;;;;27.20;13.63;;;3.40;99.90;;;;;;5092100;28;20997;-84
2021/12/10 12:41:53;;;;;;;33.97;13.87;;;3.70;99.90;;;;;;5088974;28;20429;-84
2021/12/10 12:44:27;;;;;;;30.20;13.07;;;3.80;99.90;;;;;;5092338;28;20422;-85
2021/12/10 12:47:04;;;;;;;35.93;15.23;;;3.80;99.90;;;;;;5098733;28;20196;-84
2021/12/10 12:49:48;;;;;;;27.50;12.53;;;3.50;99.90;;;;;;5089621;28;20821;-85
2021/12/10 12:52:15;;;;;;;26.47;15.30;;;3.50;99.90;;;;;;5091729;28;20414;-83
2021/12/10 12:55:08;;;;;;;29.90;14.83;;;3.40;99.90;;;;;;5091545;28;20425;-83
2021/12/10 12:58:03;;;;;;;30.30;14.70;;;3.30;99.90;;;;;;5091458;28;20452;-85
2021/12/10 13:00:43;;;;;;;31.13;15.10;;;3.30;99.90;;;;;;5090770;28;20928;-85
2021/12/10 13:03:30;;;;;;;27.77;15.60;;;3.30;99.90;;;;;;5090776;28;20407;-84